Time;durP1;ratioP1;P1;durP2;ratioP2;P2;SDS_P1;SDS_P2;PMS_P1;PMS_P2;Temp;Humidity;BMP_temperature;BMP_pressure;BME280_temperature;BME280_humidity;BME280_pressure;Samples;Min_cycle;Max_cycle;Signal;HPM_P1;HPM_P2
2022/12/08 00:01:05;;;;;;;;;;;;;;;;;;5175057;27;2133;-41
2022/12/08 00:03:33;;;;;;;;;;;;;;;;;;5175076;27;1819;-40
2022/12/08 00:11:32;;;;;;;;;;;;;;;;;;5175067;27;1621;-40
2022/12/08 00:14:00;;;;;;;;;;;;;;;;;;5174721;27;1777;-40
2022/12/08 00:16:27;;;;;;;;;;;;;;;;;;5174885;27;2047;-40
2022/12/08 00:18:54;;;;;;;;;;;;;;;;;;5174911;27;2055;-40
2022/12/08 00:21:21;;;;;;;;;;;;;;;;;;5174631;27;2143;-40
2022/12/08 00:23:48;;;;;;;;;;;;;;;;;;5174740;27;1314;-42
2022/12/08 00:26:15;;;;;;;;;;;;;;;;;;5174494;27;2008;-39
2022/12/08 00:28:42;;;;;;;;;;;;;;;;;;5174553;27;1621;-40
2022/12/08 00:31:10;;;;;;;;;;;;;;;;;;5174444;27;2051;-41
2022/12/08 00:33:37;;;;;;;;;;;;;;;;;;5174505;27;1988;-40
2022/12/08 00:36:08;;;;;;;;;;;;;;;;;;5174438;27;1995;-40
2022/12/08 00:38:36;;;;;;;;;;;;;;;;;;5174243;27;2132;-40
2022/12/08 00:41:06;;;;;;;;;;;;;;;;;;5174743;27;1911;-40
2022/12/08 00:43:33;;;;;;;;;;;;;;;;;;5174350;27;1978;-39
2022/12/08 00:46:00;;;;;;;;;;;;;;;;;;5174317;27;1968;-39
2022/12/08 00:48:27;;;;;;;;;;;;;;;;;;5174358;27;1826;-40
2022/12/08 00:50:54;;;;;;;;;;;;;;;;;;5174422;27;1853;-40
2022/12/08 00:53:21;;;;;;;;;;;;;;;;;;5174205;27;1693;-39
2022/12/08 00:55:48;;;;;;;;;;;;;;;;;;5173967;27;2195;-40
2022/12/08 00:58:15;;;;;;;;;;;;;;;;;;5174012;27;1756;-39
2022/12/08 01:00:43;;;;;;;;;;;;;;;;;;5173888;27;1963;-40
2022/12/08 01:03:10;;;;;;;;;;;;;;;;;;5173943;27;1965;-40
2022/12/08 01:05:38;;;;;;;;;;;;;;;;;;5174017;27;1635;-40
2022/12/08 01:08:06;;;;;;;;;;;;;;;;;;5173693;27;1825;-40
2022/12/08 01:10:36;;;;;;;;;;;;;;;;;;5173221;27;1809;-40
2022/12/08 01:13:04;;;;;;;;;;;;;;;;;;5173811;27;1820;-40
2022/12/08 01:15:31;;;;;;;;;;;;;;;;;;5174022;27;2116;-40
2022/12/08 01:17:58;;;;;;;;;;;;;;;;;;5174003;27;2209;-40
2022/12/08 01:20:26;;;;;;;;;;;;;;;;;;5173499;27;1910;-39
2022/12/08 01:22:53;;;;;;;;;;;;;;;;;;5173671;27;1287;-40
2022/12/08 01:25:20;;;;;;;;;;;;;;;;;;5173547;27;1779;-40
2022/12/08 01:27:47;;;;;;;;;;;;;;;;;;5173795;27;1391;-40
2022/12/08 01:30:14;;;;;;;;;;;;;;;;;;5173571;27;1781;-45
2022/12/08 01:32:41;;;;;;;;;;;;;;;;;;5173788;27;1975;-40
2022/12/08 01:35:08;;;;;;;;;;;;;;;;;;5173753;27;1865;-40
2022/12/08 01:37:35;;;;;;;;;;;;;;;;;;5173419;27;1868;-40
2022/12/08 01:40:03;;;;;;;;;;;;;;;;;;5173633;27;1925;-39
2022/12/08 01:42:33;;;;;;;;;;;;;;;;;;5173927;27;1412;-39
2022/12/08 01:45:01;;;;;;;;;;;;;;;;;;5155011;27;1797;-40
2022/12/08 01:47:32;;;;;;;;;;;;;;;;;;5173460;27;1852;-40
2022/12/08 01:49:59;;;;;;;;;;;;;;;;;;5173528;27;1939;-40
2022/12/08 01:52:36;;;;;;;;;;;;;;;;;;5173425;27;2296;-39
2022/12/08 01:55:09;;;;;;;;;;;;;;;;;;5173823;27;1719;-39
2022/12/08 01:57:40;;;;;;;;;;;;;;;;;;5173235;27;1808;-40
2022/12/08 02:00:09;;;;;;;;;;;;;;;;;;5173390;27;1976;-40
2022/12/08 02:02:59;;;;;;;;;;;;;;;;;;5173083;27;1706;-41
2022/12/08 02:05:28;;;;;;;;;;;;;;;;;;5160468;27;1770;-40
2022/12/08 02:07:56;;;;;;;;;;;;;;;;;;5173405;27;1948;-40
2022/12/08 02:10:26;;;;;;;;;;;;;;;;;;5173292;27;1733;-40
2022/12/08 02:12:54;;;;;;;;;;;;;;;;;;5172322;27;1519;-40
2022/12/08 02:15:44;;;;;;;;;;;;;;;;;;5152473;27;1947;-38
2022/12/08 02:18:30;;;;;;;;;;;;;;;;;;5152210;27;1994;-40
2022/12/08 02:21:15;;;;;;;;;;;;;;;;;;5166619;27;1962;-39
2022/12/08 02:23:52;;;;;;;;;;;;;;;;;;5176820;27;1569;-40
2022/12/08 02:26:35;;;;;;;;;;;;;;;;;;5177143;27;1650;-40
2022/12/08 02:29:17;;;;;;;;;;;;;;;;;;5177042;27;1629;-40
2022/12/08 02:31:47;;;;;;;;;;;;;;;;;;5176680;27;1819;-40
2022/12/08 02:34:17;;;;;;;;;;;;;;;;;;5177028;27;1863;-39
2022/12/08 02:36:58;;;;;;;;;;;;;;;;;;5176814;27;1845;-40
2022/12/08 02:39:25;;;;;;;;;;;;;;;;;;5176638;27;1984;-46
2022/12/08 02:42:09;;;;;;;;;;;;;;;;;;5176434;27;2006;-39
2022/12/08 02:44:48;;;;;;;;;;;;;;;;;;5176901;27;2176;-40
2022/12/08 02:47:17;;;;;;;;;;;;;;;;;;5176573;27;2279;-40
2022/12/08 02:49:44;;;;;;;;;;;;;;;;;;5176692;27;1786;-39
2022/12/08 02:52:11;;;;;;;;;;;;;;;;;;5176384;27;2283;-39
2022/12/08 02:54:39;;;;;;;;;;;;;;;;;;5176536;27;1812;-40
2022/12/08 02:57:25;;;;;;;;;;;;;;;;;;5176615;27;1978;-40
2022/12/08 03:00:09;;;;;;;;;;;;;;;;;;5176245;27;1899;-40
2022/12/08 03:02:42;;;;;;;;;;;;;;;;;;5158003;27;1795;-39
2022/12/08 03:05:22;;;;;;;;;;;;;;;;;;5176063;27;1490;-40
2022/12/08 03:08:07;;;;;;;;;;;;;;;;;;5176265;27;2071;-40
2022/12/08 03:10:39;;;;;;;;;;;;;;;;;;5176190;27;2098;-41
2022/12/08 03:13:18;;;;;;;;;;;;;;;;;;5176595;27;1699;-39
2022/12/08 03:15:47;;;;;;;;;;;;;;;;;;5176030;27;2424;-39
2022/12/08 03:18:16;;;;;;;;;;;;;;;;;;5176035;27;1592;-39
2022/12/08 03:20:44;;;;;;;;;;;;;;;;;;5175768;27;2121;-39
2022/12/08 03:23:13;;;;;;;;;;;;;;;;;;5175974;27;1819;-40
2022/12/08 03:25:43;;;;;;;;;;;;;;;;;;5176024;27;1682;-39
2022/12/08 03:28:11;;;;;;;;;;;;;;;;;;5175925;27;1998;-41
2022/12/08 03:30:40;;;;;;;;;;;;;;;;;;5176081;27;1811;-40
2022/12/08 03:33:17;;;;;;;;;;;;;;;;;;5175201;27;1666;-40
2022/12/08 03:35:45;;;;;;;;;;;;;;;;;;5175646;27;2117;-40
2022/12/08 03:38:14;;;;;;;;;;;;;;;;;;5175345;27;2101;-40
2022/12/08 03:40:41;;;;;;;;;;;;;;;;;;5175642;27;1986;-39
2022/12/08 03:43:08;;;;;;;;;;;;;;;;;;5175692;27;1975;-39
2022/12/08 03:45:35;;;;;;;;;;;;;;;;;;5175421;27;1734;-40
2022/12/08 03:48:02;;;;;;;;;;;;;;;;;;5175483;27;1897;-40
2022/12/08 03:50:29;;;;;;;;;;;;;;;;;;5175387;27;1272;-40
2022/12/08 03:52:56;;;;;;;;;;;;;;;;;;5174895;27;2027;-40
2022/12/08 03:55:23;;;;;;;;;;;;;;;;;;5175506;27;1452;-40
2022/12/08 03:57:50;;;;;;;;;;;;;;;;;;5175155;27;2261;-40
2022/12/08 04:00:17;;;;;;;;;;;;;;;;;;5175201;27;1911;-40
2022/12/08 04:02:44;;;;;;;;;;;;;;;;;;5175123;27;1308;-40
2022/12/08 04:05:12;;;;;;;;;;;;;;;;;;5174962;27;1959;-40
2022/12/08 04:07:39;;;;;;;;;;;;;;;;;;5175350;27;1720;-40
2022/12/08 04:10:06;;;;;;;;;;;;;;;;;;5175107;27;1803;-40
2022/12/08 04:12:35;;;;;;;;;;;;;;;;;;5175167;27;1917;-40
2022/12/08 04:15:02;;;;;;;;;;;;;;;;;;5175046;27;1472;-41
2022/12/08 04:17:29;;;;;;;;;;;;;;;;;;5174875;27;2133;-43
2022/12/08 04:19:56;;;;;;;;;;;;;;;;;;5174501;27;1977;-40
2022/12/08 04:22:23;;;;;;;;;;;;;;;;;;5174807;27;1804;-41
2022/12/08 04:24:50;;;;;;;;;;;;;;;;;;5174630;27;1792;-40
2022/12/08 04:27:17;;;;;;;;;;;;;;;;;;5173701;27;2059;-39
2022/12/08 04:29:45;;;;;;;;;;;;;;;;;;5174305;27;1669;-45
2022/12/08 04:32:12;;;;;;;;;;;;;;;;;;5174820;27;1694;-39
2022/12/08 04:34:40;;;;;;;;;;;;;;;;;;5174404;27;1472;-41
2022/12/08 04:37:07;;;;;;;;;;;;;;;;;;5174252;27;1665;-40
2022/12/08 04:39:34;;;;;;;;;;;;;;;;;;5172879;27;2075;-40
2022/12/08 04:42:01;;;;;;;;;;;;;;;;;;5152617;27;1915;-40
2022/12/08 04:44:28;;;;;;;;;;;;;;;;;;5152192;27;1292;-39
2022/12/08 04:46:55;;;;;;;;;;;;;;;;;;5153369;27;2234;-39
2022/12/08 04:49:23;;;;;;;;;;;;;;;;;;5153071;27;1860;-40
2022/12/08 04:51:50;;;;;;;;;;;;;;;;;;5153582;27;1556;-40
2022/12/08 04:54:17;;;;;;;;;;;;;;;;;;5153056;27;2119;-40
2022/12/08 04:56:44;;;;;;;;;;;;;;;;;;5153506;27;2111;-40
2022/12/08 04:59:11;;;;;;;;;;;;;;;;;;5136547;27;1874;-40
2022/12/08 05:01:38;;;;;;;;;;;;;;;;;;5152914;27;1921;-40
2022/12/08 05:04:06;;;;;;;;;;;;;;;;;;5153172;27;1732;-40
2022/12/08 05:06:33;;;;;;;;;;;;;;;;;;5152669;27;1894;-40
2022/12/08 05:09:00;;;;;;;;;;;;;;;;;;5161868;27;2183;-40
2022/12/08 05:11:27;;;;;;;;;;;;;;;;;;5173853;27;1946;-40
2022/12/08 05:13:54;;;;;;;;;;;;;;;;;;5173818;27;1822;-40
2022/12/08 05:16:21;;;;;;;;;;;;;;;;;;5173602;27;1702;-40
2022/12/08 05:18:48;;;;;;;;;;;;;;;;;;5173903;27;1822;-40
2022/12/08 05:21:16;;;;;;;;;;;;;;;;;;5173870;27;2311;-39
2022/12/08 05:23:45;;;;;;;;;;;;;;;;;;5173572;27;1929;-41
2022/12/08 05:26:12;;;;;;;;;;;;;;;;;;5173412;27;1752;-40
2022/12/08 05:28:39;;;;;;;;;;;;;;;;;;5170461;27;2131;-40
2022/12/08 05:31:08;;;;;;;;;;;;;;;;;;5152960;27;2381;-40
2022/12/08 05:33:36;;;;;;;;;;;;;;;;;;5152678;27;1996;-40
2022/12/08 05:36:03;;;;;;;;;;;;;;;;;;5152682;27;1792;-41
2022/12/08 05:38:30;;;;;;;;;;;;;;;;;;5155611;27;1884;-40
2022/12/08 05:40:57;;;;;;;;;;;;;;;;;;5157412;27;1924;-40
2022/12/08 05:43:26;;;;;;;;;;;;;;;;;;5152538;27;1650;-40
2022/12/08 05:45:52;;;;;;;;;;;;;;;;;;5152504;27;2219;-39
2022/12/08 05:48:20;;;;;;;;;;;;;;;;;;5152538;27;1768;-40
2022/12/08 05:50:47;;;;;;;;;;;;;;;;;;5152719;27;2079;-39
2022/12/08 05:53:15;;;;;;;;;;;;;;;;;;5152779;27;1874;-40
2022/12/08 05:55:42;;;;;;;;;;;;;;;;;;5153577;27;1847;-41
2022/12/08 05:58:13;;;;;;;;;;;;;;;;;;5156936;27;1774;-40
2022/12/08 06:00:40;;;;;;;;;;;;;;;;;;5156394;27;1923;-40
2022/12/08 06:03:09;;;;;;;;;;;;;;;;;;5156661;27;1968;-39
2022/12/08 06:05:36;;;;;;;;;;;;;;;;;;5156368;27;1701;-39
2022/12/08 06:08:03;;;;;;;;;;;;;;;;;;5156523;27;1937;-40
2022/12/08 06:10:30;;;;;;;;;;;;;;;;;;5156260;27;1739;-40
2022/12/08 06:12:57;;;;;;;;;;;;;;;;;;5156517;27;2123;-43
2022/12/08 06:15:24;;;;;;;;;;;;;;;;;;5156480;27;2007;-40
2022/12/08 06:17:51;;;;;;;;;;;;;;;;;;5156374;27;1797;-40
2022/12/08 06:20:18;;;;;;;;;;;;;;;;;;5163806;27;2057;-39
2022/12/08 06:22:45;;;;;;;;;;;;;;;;;;5176907;27;1679;-40
2022/12/08 06:25:12;;;;;;;;;;;;;;;;;;5176984;27;1378;-40
2022/12/08 06:27:39;;;;;;;;;;;;;;;;;;5177076;27;1650;-40
2022/12/08 06:30:07;;;;;;;;;;;;;;;;;;5158388;27;2138;-39
2022/12/08 06:32:35;;;;;;;;;;;;;;;;;;5158602;27;1896;-41
2022/12/08 06:35:02;;;;;;;;;;;;;;;;;;5158489;27;1979;-40
2022/12/08 06:37:29;;;;;;;;;;;;;;;;;;5176867;27;2059;-41
2022/12/08 06:39:56;;;;;;;;;;;;;;;;;;5158345;27;2014;-40
2022/12/08 06:45:13;;;;;;;;;;;;;;;;;;5176593;27;1847;-40
2022/12/08 06:47:40;;;;;;;;;;;;;;;;;;5176775;27;1771;-40
2022/12/08 06:50:08;;;;;;;;;;;;;;;;;;5176648;27;1826;-45
2022/12/08 06:52:40;;;;;;;;;;;;;;;;;;5176433;27;1643;-40
2022/12/08 06:55:19;;;;;;;;;;;;;;;;;;5155930;27;2106;-40
2022/12/08 06:58:06;;;;;;;;;;;;;;;;;;5155685;27;1701;-40
2022/12/08 07:00:33;;;;;;;;;;;;;;;;;;5155290;27;1916;-41
2022/12/08 07:03:00;;;;;;;;;;;;;;;;;;5155346;27;2121;-40
2022/12/08 07:05:28;;;;;;;;;;;;;;;;;;5155523;27;2178;-40
2022/12/08 07:07:55;;;;;;;;;;;;;;;;;;5154185;27;1749;-40
2022/12/08 07:10:23;;;;;;;;;;;;;;;;;;5155636;27;1651;-40
2022/12/08 07:12:50;;;;;;;;;;;;;;;;;;5155313;27;1441;-38
2022/12/08 07:15:17;;;;;;;;;;;;;;;;;;5153880;27;1707;-40
2022/12/08 07:17:44;;;;;;;;;;;;;;;;;;5155277;27;2114;-39
2022/12/08 07:20:11;;;;;;;;;;;;;;;;;;5161853;27;1841;-40
2022/12/08 07:22:39;;;;;;;;;;;;;;;;;;5175768;27;1980;-40
2022/12/08 07:25:06;;;;;;;;;;;;;;;;;;5176045;27;1767;-40
2022/12/08 07:27:33;;;;;;;;;;;;;;;;;;5175652;27;1565;-41
2022/12/08 07:30:00;;;;;;;;;;;;;;;;;;5175338;27;1975;-40
2022/12/08 07:32:27;;;;;;;;;;;;;;;;;;5175797;27;1693;-40
2022/12/08 07:34:54;;;;;;;;;;;;;;;;;;5175980;27;1384;-40
2022/12/08 07:37:21;;;;;;;;;;;;;;;;;;5175561;27;1855;-39
2022/12/08 07:39:48;;;;;;;;;;;;;;;;;;5175449;27;1676;-40
2022/12/08 07:42:15;;;;;;;;;;;;;;;;;;5175395;27;1969;-40
2022/12/08 07:44:45;;;;;;;;;;;;;;;;;;5140107;27;1777;-39
2022/12/08 07:47:12;;;;;;;;;;;;;;;;;;5175499;27;1292;-39
2022/12/08 07:49:39;;;;;;;;;;;;;;;;;;5175260;27;2074;-40
2022/12/08 07:52:06;;;;;;;;;;;;;;;;;;5175434;27;2040;-41
2022/12/08 07:54:33;;;;;;;;;;;;;;;;;;5156634;27;1987;-40
2022/12/08 07:57:02;;;;;;;;;;;;;;;;;;5175180;27;1454;-39
2022/12/08 07:59:29;;;;;;;;;;;;;;;;;;5175098;27;1122;-40
2022/12/08 08:01:56;;;;;;;;;;;;;;;;;;5175261;27;1972;-41
2022/12/08 08:04:43;;;;;;;;;;;;;;;;;;5174961;27;2001;-40
2022/12/08 08:07:11;;;;;;;;;;;;;;;;;;5174803;27;1283;-40
2022/12/08 08:09:38;;;;;;;;;;;;;;;;;;5174875;27;1959;-41
2022/12/08 08:12:08;;;;;;;;;;;;;;;;;;5174994;27;1716;-40
2022/12/08 08:14:55;;;;;;;;;;;;;;;;;;5175261;27;2439;-40
2022/12/08 08:17:22;;;;;;;;;;;;;;;;;;5156342;27;1781;-40
2022/12/08 08:19:51;;;;;;;;;;;;;;;;;;5174753;27;1849;-40
2022/12/08 08:22:18;;;;;;;;;;;;;;;;;;5174653;27;2084;-40
2022/12/08 08:24:45;;;;;;;;;;;;;;;;;;5174902;27;1994;-40
2022/12/08 08:27:12;;;;;;;;;;;;;;;;;;5174635;27;1172;-39
2022/12/08 08:29:41;;;;;;;;;;;;;;;;;;5174519;27;1814;-40
2022/12/08 08:32:08;;;;;;;;;;;;;;;;;;5174482;27;1621;-40
2022/12/08 08:34:35;;;;;;;;;;;;;;;;;;5174659;27;2223;-41
2022/12/08 08:37:02;;;;;;;;;;;;;;;;;;5174435;27;1592;-40
2022/12/08 08:39:31;;;;;;;;;;;;;;;;;;5174411;27;2040;-40
2022/12/08 08:41:58;;;;;;;;;;;;;;;;;;5174573;27;2323;-40
2022/12/08 08:44:25;;;;;;;;;;;;;;;;;;5174502;27;1674;-40
2022/12/08 08:46:52;;;;;;;;;;;;;;;;;;5173910;27;2084;-40
2022/12/08 08:49:21;;;;;;;;;;;;;;;;;;5173982;27;2159;-40
2022/12/08 08:51:48;;;;;;;;;;;;;;;;;;5174169;27;1989;-40
2022/12/08 08:54:15;;;;;;;;;;;;;;;;;;5174123;27;1634;-39
2022/12/08 08:56:42;;;;;;;;;;;;;;;;;;5174253;27;1598;-40
2022/12/08 08:59:11;;;;;;;;;;;;;;;;;;5173716;27;1704;-40
2022/12/08 09:01:38;;;;;;;;;;;;;;;;;;5173977;27;1986;-40
2022/12/08 09:04:05;;;;;;;;;;;;;;;;;;5174248;27;1640;-40
2022/12/08 09:06:32;;;;;;;;;;;;;;;;;;5173688;27;2055;-41
2022/12/08 09:09:01;;;;;;;;;;;;;;;;;;5174165;27;1684;-41
2022/12/08 09:11:28;;;;;;;;;;;;;;;;;;5173949;27;1819;-40
2022/12/08 09:13:55;;;;;;;;;;;;;;;;;;5173771;27;1561;-40
2022/12/08 09:16:22;;;;;;;;;;;;;;;;;;5173841;27;1937;-40
2022/12/08 09:18:51;;;;;;;;;;;;;;;;;;5173688;27;2126;-40
2022/12/08 09:21:21;;;;;;;;;;;;;;;;;;5173688;27;2219;-40
2022/12/08 09:23:49;;;;;;;;;;;;;;;;;;5173729;27;1672;-40
2022/12/08 09:26:16;;;;;;;;;;;;;;;;;;5173563;27;1812;-40
2022/12/08 09:28:48;;;;;;;;;;;;;;;;;;5173644;27;1307;-39
2022/12/08 09:31:16;;;;;;;;;;;;;;;;;;5173030;27;1636;-40
2022/12/08 09:33:44;;;;;;;;;;;;;;;;;;5173841;27;2240;-40
2022/12/08 09:36:14;;;;;;;;;;;;;;;;;;5173627;27;1556;-40
2022/12/08 09:38:43;;;;;;;;;;;;;;;;;;5173568;27;1918;-40
2022/12/08 09:41:15;;;;;;;;;;;;;;;;;;5173545;27;2152;-40
2022/12/08 09:43:50;;;;;;;;;;;;;;;;;;5173751;27;1891;-40
2022/12/08 09:46:19;;;;;;;;;;;;;;;;;;5173327;27;1460;-40
2022/12/08 09:48:54;;;;;;;;;;;;;;;;;;5173568;27;1806;-40
2022/12/08 09:51:30;;;;;;;;;;;;;;;;;;5173383;27;1628;-40
2022/12/08 09:54:03;;;;;;;;;;;;;;;;;;5173432;27;1517;-41
2022/12/08 09:56:31;;;;;;;;;;;;;;;;;;5173547;27;2046;-39
2022/12/08 09:59:03;;;;;;;;;;;;;;;;;;5173387;27;2045;-40
2022/12/08 10:01:31;;;;;;;;;;;;;;;;;;5173315;27;1903;-40
2022/12/08 10:03:59;;;;;;;;;;;;;;;;;;5173466;27;2053;-40
2022/12/08 10:06:32;;;;;;;;;;;;;;;;;;5173205;27;1462;-40
2022/12/08 10:09:25;;;;;;;;;;;;;;;;;;5154847;27;2360;-42
2022/12/08 10:11:56;;;;;;;;;;;;;;;;;;5123613;27;1775;-41
2022/12/08 10:14:45;;;;;;;;;;;;;;;;;;5173329;27;2163;-41
2022/12/08 10:17:12;;;;;;;;;;;;;;;;;;5173145;27;1835;-40
2022/12/08 10:19:40;;;;;;;;;;;;;;;;;;5173138;27;1972;-41
2022/12/08 10:22:14;;;;;;;;;;;;;;;;;;5173144;27;2030;-41
2022/12/08 10:24:47;;;;;;;;;;;;;;;;;;5173006;27;1963;-40
2022/12/08 10:27:14;;;;;;;;;;;;;;;;;;5173147;27;1781;-40
2022/12/08 10:29:41;;;;;;;;;;;;;;;;;;5173169;27;1466;-40
2022/12/08 10:32:20;;;;;;;;;;;;;;;;;;5173153;27;1459;-40
2022/12/08 10:35:05;;;;;;;;;;;;;;;;;;5173057;27;1799;-41
2022/12/08 10:37:32;;;;;;;;;;;;;;;;;;5173048;27;1656;-42
2022/12/08 10:40:00;;;;;;;;;;;;;;;;;;5173055;27;1942;-42
2022/12/08 10:42:33;;;;;;;;;;;;;;;;;;5173475;27;1974;-41
2022/12/08 10:45:20;;;;;;;;;;;;;;;;;;5176536;27;1967;-40
2022/12/08 10:47:59;;;;;;;;;;;;;;;;;;5159272;27;2324;-42
2022/12/08 10:50:29;;;;;;;;;;;;;;;;;;5176502;27;1739;-43
2022/12/08 10:52:58;;;;;;;;;;;;;;;;;;5176761;27;1882;-42
2022/12/08 10:55:25;;;;;;;;;;;;;;;;;;5176516;27;1831;-39
2022/12/08 10:57:52;;;;;;;;;;;;;;;;;;5176490;27;1712;-41
2022/12/08 11:00:21;;;;;;;;;;;;;;;;;;5176363;27;1948;-41
2022/12/08 11:02:58;;;;;;;;;;;;;;;;;;5176121;27;1976;-41
2022/12/08 11:05:33;;;;;;;;;;;;;;;;;;5176214;27;2182;-41
2022/12/08 11:08:01;;;;;;;;;;;;;;;;;;5176301;27;1667;-41
2022/12/08 11:10:33;;;;;;;;;;;;;;;;;;5176077;27;1649;-42
2022/12/08 11:13:01;;;;;;;;;;;;;;;;;;5176153;27;1811;-41
2022/12/08 11:15:32;;;;;;;;;;;;;;;;;;5175788;27;2175;-41
2022/12/08 11:18:01;;;;;;;;;;;;;;;;;;5176297;27;1909;-41
2022/12/08 11:20:36;;;;;;;;;;;;;;;;;;5175886;27;1938;-42
2022/12/08 11:23:03;;;;;;;;;;;;;;;;;;5175809;27;2060;-41
2022/12/08 11:25:30;;;;;;;;;;;;;;;;;;5175819;27;1953;-41
2022/12/08 11:27:58;;;;;;;;;;;;;;;;;;5176050;27;2177;-40
2022/12/08 11:30:28;;;;;;;;;;;;;;;;;;5175838;27;1856;-40
2022/12/08 11:32:57;;;;;;;;;;;;;;;;;;5176000;27;1660;-43
2022/12/08 11:35:28;;;;;;;;;;;;;;;;;;5175734;27;1891;-41
2022/12/08 11:37:57;;;;;;;;;;;;;;;;;;5175827;27;2092;-41
2022/12/08 11:40:40;;;;;;;;;;;;;;;;;;5175820;27;1530;-41
2022/12/08 11:43:08;;;;;;;;;;;;;;;;;;5175609;27;2056;-42
2022/12/08 11:45:35;;;;;;;;;;;;;;;;;;5175327;27;1964;-40
2022/12/08 11:48:08;;;;;;;;;;;;;;;;;;5175164;27;2149;-41
2022/12/08 11:50:42;;;;;;;;;;;;;;;;;;5175443;27;2066;-41
2022/12/08 11:53:14;;;;;;;;;;;;;;;;;;5175049;27;1964;-40
2022/12/08 11:55:44;;;;;;;;;;;;;;;;;;5157272;27;2199;-40
2022/12/08 11:58:21;;;;;;;;;;;;;;;;;;5175195;27;2109;-40
2022/12/08 12:00:48;;;;;;;;;;;;;;;;;;5175406;27;1724;-41
2022/12/08 12:03:23;;;;;;;;;;;;;;;;;;5174922;27;1982;-41
2022/12/08 12:05:53;;;;;;;;;;;;;;;;;;5175218;27;1868;-41
2022/12/08 12:08:46;;;;;;;;;;;;;;;;;;5175285;27;1857;-40
2022/12/08 12:14:45;;;;;;;;;;;;;;;;;;5166498;27;1970;-40
2022/12/08 12:17:28;;;;;;;;;;;;;;;;;;5174033;27;2200;-40
2022/12/08 12:19:58;;;;;;;;;;;;;;;;;;5163627;27;2061;-41
2022/12/08 12:22:28;;;;;;;;;;;;;;;;;;5174730;27;1907;-41
2022/12/08 12:24:55;;;;;;;;;;;;;;;;;;5174812;27;1880;-41
2022/12/08 12:27:39;;;;;;;;;;;;;;;;;;5174733;27;1706;-41
2022/12/08 12:30:07;;;;;;;;;;;;;;;;;;5174263;27;1925;-40
2022/12/08 12:32:43;;;;;;;;;;;;;;;;;;5174080;27;1822;-40
2022/12/08 12:35:15;;;;;;;;;;;;;;;;;;5153752;27;1811;-40
2022/12/08 12:37:44;;;;;;;;;;;;;;;;;;5153856;27;1882;-41
2022/12/08 12:40:16;;;;;;;;;;;;;;;;;;5153348;27;2228;-40
2022/12/08 12:42:47;;;;;;;;;;;;;;;;;;5153705;27;1982;-40
2022/12/08 12:45:20;;;;;;;;;;;;;;;;;;5153638;27;1702;-40
2022/12/08 12:47:49;;;;;;;;;;;;;;;;;;5153457;27;1541;-40
2022/12/08 12:50:31;;;;;;;;;;;;;;;;;;5134746;27;1642;-39
2022/12/08 12:53:23;;;;;;;;;;;;;;;;;;5153605;27;1884;-40
2022/12/08 12:55:52;;;;;;;;;;;;;;;;;;5134547;27;1885;-42
2022/12/08 12:58:20;;;;;;;;;;;;;;;;;;5153134;27;1871;-40
2022/12/08 13:00:47;;;;;;;;;;;;;;;;;;5153269;27;1912;-41
2022/12/08 13:03:15;;;;;;;;;;;;;;;;;;5153296;27;1978;-41
2022/12/08 13:05:48;;;;;;;;;;;;;;;;;;5152302;27;1650;-40
2022/12/08 13:08:22;;;;;;;;;;;;;;;;;;5153109;27;1970;-41
2022/12/08 13:10:58;;;;;;;;;;;;;;;;;;5153121;27;1965;-40
2022/12/08 13:13:26;;;;;;;;;;;;;;;;;;5153106;27;2193;-41
2022/12/08 13:15:55;;;;;;;;;;;;;;;;;;5153023;27;2236;-40
2022/12/08 13:18:27;;;;;;;;;;;;;;;;;;5152998;27;1361;-41
2022/12/08 13:21:10;;;;;;;;;;;;;;;;;;5165234;27;1844;-41
2022/12/08 13:23:37;;;;;;;;;;;;;;;;;;5173627;27;1997;-41
2022/12/08 13:26:09;;;;;;;;;;;;;;;;;;5173775;27;1772;-40
2022/12/08 13:28:54;;;;;;;;;;;;;;;;;;5173587;27;1817;-41
2022/12/08 13:31:34;;;;;;;;;;;;;;;;;;5173529;27;1809;-41
2022/12/08 13:34:05;;;;;;;;;;;;;;;;;;5173532;27;1729;-40
2022/12/08 13:36:34;;;;;;;;;;;;;;;;;;5173429;27;1774;-41
2022/12/08 13:39:02;;;;;;;;;;;;;;;;;;5173828;27;1993;-41
2022/12/08 13:41:34;;;;;;;;;;;;;;;;;;5154715;27;2191;-40
2022/12/08 13:44:05;;;;;;;;;;;;;;;;;;5173676;27;1914;-41
2022/12/08 13:46:57;;;;;;;;;;;;;;;;;;5173267;27;2066;-43
2022/12/08 13:49:58;;;;;;;;;;;;;;;;;;5173157;27;1810;-41
2022/12/08 13:52:54;;;;;;;;;;;;;;;;;;5173719;27;1563;-41
2022/12/08 13:55:49;;;;;;;;;;;;;;;;;;5173382;27;1680;-40
2022/12/08 13:58:37;;;;;;;;;;;;;;;;;;5173397;27;1847;-41
2022/12/08 14:01:05;;;;;;;;;;;;;;;;;;5173392;27;1673;-41
2022/12/08 14:03:35;;;;;;;;;;;;;;;;;;5173170;27;1907;-41
2022/12/08 14:06:02;;;;;;;;;;;;;;;;;;5173179;27;2107;-40
2022/12/08 14:08:38;;;;;;;;;;;;;;;;;;5173325;27;1720;-40
2022/12/08 14:11:34;;;;;;;;;;;;;;;;;;5173784;27;1845;-41
2022/12/08 14:14:04;;;;;;;;;;;;;;;;;;5173193;27;1737;-41
2022/12/08 14:16:52;;;;;;;;;;;;;;;;;;5174014;27;2024;-41
2022/12/08 14:19:23;;;;;;;;;;;;;;;;;;5177602;27;2009;-43
2022/12/08 14:21:53;;;;;;;;;;;;;;;;;;5177334;27;1800;-41
2022/12/08 14:24:21;;;;;;;;;;;;;;;;;;5177294;27;2174;-40
2022/12/08 14:26:50;;;;;;;;;;;;;;;;;;5177357;27;1701;-41
2022/12/08 14:29:37;;;;;;;;;;;;;;;;;;5177096;27;2134;-41
2022/12/08 14:32:23;;;;;;;;;;;;;;;;;;5176957;27;2120;-41
2022/12/08 14:34:52;;;;;;;;;;;;;;;;;;5177015;27;2127;-41
2022/12/08 14:37:20;;;;;;;;;;;;;;;;;;5177274;27;1669;-40
2022/12/08 14:39:48;;;;;;;;;;;;;;;;;;5158414;27;1830;-40
2022/12/08 14:42:20;;;;;;;;;;;;;;;;;;5176296;27;2018;-42
2022/12/08 14:44:47;;;;;;;;;;;;;;;;;;5176958;27;1719;-40
2022/12/08 14:47:17;;;;;;;;;;;;;;;;;;5176617;27;1982;-40
2022/12/08 14:49:46;;;;;;;;;;;;;;;;;;5176830;27;1479;-40
2022/12/08 14:52:13;;;;;;;;;;;;;;;;;;5176570;27;1972;-41
2022/12/08 14:54:42;;;;;;;;;;;;;;;;;;5176863;27;2037;-41
2022/12/08 14:57:10;;;;;;;;;;;;;;;;;;5176531;27;2030;-40
2022/12/08 14:59:39;;;;;;;;;;;;;;;;;;5176469;27;1858;-42
2022/12/08 15:02:11;;;;;;;;;;;;;;;;;;5176417;27;1609;-41
2022/12/08 15:04:39;;;;;;;;;;;;;;;;;;5157576;27;2492;-41
2022/12/08 15:07:06;;;;;;;;;;;;;;;;;;5176374;27;1645;-41
2022/12/08 15:09:33;;;;;;;;;;;;;;;;;;5176186;27;1724;-41
2022/12/08 15:12:02;;;;;;;;;;;;;;;;;;5157941;27;1926;-39
2022/12/08 15:14:33;;;;;;;;;;;;;;;;;;5176101;27;1408;-41
2022/12/08 15:17:01;;;;;;;;;;;;;;;;;;5176099;27;1591;-41
2022/12/08 15:19:29;;;;;;;;;;;;;;;;;;5176204;27;1962;-40
2022/12/08 15:22:06;;;;;;;;;;;;;;;;;;5176022;27;2092;-41
2022/12/08 15:24:34;;;;;;;;;;;;;;;;;;5175891;27;1907;-41
2022/12/08 15:27:02;;;;;;;;;;;;;;;;;;5175709;27;1593;-42
2022/12/08 15:29:29;;;;;;;;;;;;;;;;;;5175179;27;1765;-43
2022/12/08 15:31:58;;;;;;;;;;;;;;;;;;5175808;27;1741;-42
2022/12/08 15:34:25;;;;;;;;;;;;;;;;;;5140512;27;1682;-43
2022/12/08 15:36:53;;;;;;;;;;;;;;;;;;5176112;27;1245;-41
2022/12/08 15:39:31;;;;;;;;;;;;;;;;;;5175566;27;1852;-41
2022/12/08 15:41:59;;;;;;;;;;;;;;;;;;5175732;27;1931;-41
2022/12/08 15:44:28;;;;;;;;;;;;;;;;;;5175656;27;2088;-41
2022/12/08 15:46:55;;;;;;;;;;;;;;;;;;5175429;27;1459;-42
2022/12/08 15:49:23;;;;;;;;;;;;;;;;;;5175305;27;1633;-42
2022/12/08 15:51:51;;;;;;;;;;;;;;;;;;5175383;27;1922;-42
2022/12/08 15:54:24;;;;;;;;;;;;;;;;;;5175497;27;1550;-41
2022/12/08 15:56:55;;;;;;;;;;;;;;;;;;5175380;27;1817;-42
2022/12/08 15:59:42;;;;;;;;;;;;;;;;;;5175114;27;2176;-41
2022/12/08 16:02:13;;;;;;;;;;;;;;;;;;5175161;27;1563;-40
2022/12/08 16:04:46;;;;;;;;;;;;;;;;;;5174804;27;1968;-41
2022/12/08 16:07:36;;;;;;;;;;;;;;;;;;5175174;27;1396;-41
2022/12/08 16:10:04;;;;;;;;;;;;;;;;;;5175108;27;2028;-41
2022/12/08 16:15:42;;;;;;;;;;;;;;;;;;5174954;27;1635;-43
2022/12/08 16:18:28;;;;;;;;;;;;;;;;;;5175136;27;1916;-40
2022/12/08 16:20:59;;;;;;;;;;;;;;;;;;5174727;27;2052;-41
2022/12/08 16:23:47;;;;;;;;;;;;;;;;;;5175080;27;1980;-41
2022/12/08 16:26:16;;;;;;;;;;;;;;;;;;5155890;27;1849;-40
2022/12/08 16:29:04;;;;;;;;;;;;;;;;;;5153917;27;1942;-41
2022/12/08 16:31:32;;;;;;;;;;;;;;;;;;5153675;27;1725;-41
2022/12/08 16:33:59;;;;;;;;;;;;;;;;;;5154107;27;2134;-41
2022/12/08 16:36:26;;;;;;;;;;;;;;;;;;5154021;27;1772;-40
2022/12/08 16:38:53;;;;;;;;;;;;;;;;;;5153817;27;1985;-41
2022/12/08 16:44:05;;;;;;;;;;;;;;;;;;5153294;27;1911;-43
2022/12/08 16:46:33;;;;;;;;;;;;;;;;;;5135414;27;1992;-41
2022/12/08 16:49:00;;;;;;;;;;;;;;;;;;5154003;27;1657;-41
2022/12/08 16:51:27;;;;;;;;;;;;;;;;;;5153666;27;1661;-40
2022/12/08 16:53:57;;;;;;;;;;;;;;;;;;5138829;27;1526;-41
2022/12/08 16:56:24;;;;;;;;;;;;;;;;;;5173933;27;1952;-41
2022/12/08 16:59:00;;;;;;;;;;;;;;;;;;5174381;27;1772;-41
2022/12/08 17:01:28;;;;;;;;;;;;;;;;;;5174280;27;2435;-40
2022/12/08 17:03:55;;;;;;;;;;;;;;;;;;5173905;27;2006;-41
2022/12/08 17:06:42;;;;;;;;;;;;;;;;;;5173605;27;1817;-41
2022/12/08 17:09:10;;;;;;;;;;;;;;;;;;5174045;27;2091;-41
2022/12/08 17:11:37;;;;;;;;;;;;;;;;;;5173917;27;1949;-42
2022/12/08 17:14:09;;;;;;;;;;;;;;;;;;5173898;27;2305;-41
2022/12/08 17:16:36;;;;;;;;;;;;;;;;;;5173852;27;2056;-41
2022/12/08 17:19:04;;;;;;;;;;;;;;;;;;5173832;27;1650;-41
2022/12/08 17:21:31;;;;;;;;;;;;;;;;;;5173867;27;1914;-43
2022/12/08 17:23:58;;;;;;;;;;;;;;;;;;5173891;27;1978;-41
2022/12/08 17:26:25;;;;;;;;;;;;;;;;;;5173688;27;1922;-39
2022/12/08 17:28:52;;;;;;;;;;;;;;;;;;5173705;27;1951;-41
2022/12/08 17:31:30;;;;;;;;;;;;;;;;;;5173850;27;1824;-42
2022/12/08 17:33:59;;;;;;;;;;;;;;;;;;5173736;27;1964;-41
2022/12/08 17:36:26;;;;;;;;;;;;;;;;;;5173866;27;1611;-41
2022/12/08 17:38:53;;;;;;;;;;;;;;;;;;5173644;27;2138;-40
2022/12/08 17:41:20;;;;;;;;;;;;;;;;;;5173816;27;1561;-41
2022/12/08 17:43:47;;;;;;;;;;;;;;;;;;5173462;27;2150;-40